createdAt,value
2023-01-27T00:00:59.938Z,61.92
2023-01-27T00:03:27.194Z,56.70
2023-01-27T00:05:54.634Z,58.28
2023-01-27T00:08:22.065Z,63.63
2023-01-27T00:11:09.258Z,61.45
2023-01-27T00:13:36.608Z,55.42
2023-01-27T00:16:04.061Z,57.55
2023-01-27T00:18:31.344Z,52.95
2023-01-27T00:21:17.005Z,56.10
2023-01-27T00:24:02.901Z,50.53
2023-01-27T00:26:30.455Z,57.83
2023-01-27T00:28:57.737Z,58.75
2023-01-27T00:31:43.515Z,52.22
2023-01-27T00:34:11.201Z,56.95
2023-01-27T00:36:41.146Z,53.45
2023-01-27T00:39:09.857Z,54.10
2023-01-27T00:41:37.105Z,58.78
2023-01-27T00:44:12.630Z,58.05
2023-01-27T00:46:40.536Z,60.35
2023-01-27T00:49:07.984Z,45.30
2023-01-27T00:51:36.712Z,57.90
2023-01-27T00:54:05.252Z,54.78
2023-01-27T00:56:32.935Z,63.33
2023-01-27T00:59:00.553Z,62.60
2023-01-27T01:01:28.175Z,58.22
2023-01-27T01:03:55.476Z,60.33
2023-01-27T01:06:22.984Z,54.72
2023-01-27T01:08:52.395Z,58.45
2023-01-27T01:13:48.024Z,52.78
2023-01-27T01:16:22.032Z,63.67
2023-01-27T01:18:49.379Z,65.47
2023-01-27T01:21:17.151Z,62.22
2023-01-27T01:23:45.577Z,62.65
2023-01-27T01:26:14.725Z,59.20
2023-01-27T01:28:43.108Z,58.25
2023-01-27T01:31:12.443Z,59.05
2023-01-27T01:33:39.767Z,58.60
2023-01-27T01:36:09.051Z,60.22
2023-01-27T01:41:04.633Z,60.30
2023-01-27T01:43:32.018Z,69.82
2023-01-27T01:46:00.596Z,67.40
2023-01-27T01:49:01.530Z,62.17
2023-01-27T01:51:32.718Z,70.45
2023-01-27T01:54:05.117Z,64.85
2023-01-27T01:56:45.971Z,68.53
2023-01-27T01:59:36.215Z,63.50
2023-01-27T02:02:07.067Z,55.75
2023-01-27T02:04:43.086Z,68.00
2023-01-27T02:07:59.440Z,69.97
2023-01-27T02:10:26.877Z,69.38
2023-01-27T02:12:54.147Z,76.07
2023-01-27T02:15:21.583Z,71.55
2023-01-27T02:17:49.331Z,72.05
2023-01-27T02:20:28.051Z,74.57
2023-01-27T02:23:04.270Z,75.72
2023-01-27T02:25:37.402Z,88.75
2023-01-27T02:28:06.749Z,82.45
2023-01-27T02:33:01.775Z,77.45
2023-01-27T02:35:36.824Z,77.60
2023-01-27T02:38:05.413Z,84.93
2023-01-27T02:40:33.642Z,75.65
2023-01-27T02:43:01.259Z,80.82
2023-01-27T02:45:29.121Z,82.78
2023-01-27T02:47:56.379Z,81.57
2023-01-27T02:50:23.819Z,87.45
2023-01-27T02:52:51.076Z,85.40
2023-01-27T02:55:18.568Z,86.18
2023-01-27T02:57:45.815Z,83.45
2023-01-27T03:00:13.939Z,86.53
2023-01-27T03:02:41.293Z,67.43
2023-01-27T03:05:08.715Z,56.55
2023-01-27T03:07:35.962Z,68.35
2023-01-27T03:10:03.410Z,68.85
2023-01-27T03:12:30.628Z,61.47
2023-01-27T03:15:16.735Z,64.07
2023-01-27T03:18:02.621Z,65.88
2023-01-27T03:20:31.260Z,70.78
2023-01-27T03:22:58.596Z,57.90
2023-01-27T03:25:25.906Z,67.95
2023-01-27T03:27:53.178Z,59.30
2023-01-27T03:30:20.427Z,58.47
2023-01-27T03:32:47.764Z,52.83
2023-01-27T03:35:16.315Z,55.05
2023-01-27T03:38:02.603Z,57.40
2023-01-27T03:40:48.437Z,47.55
2023-01-27T03:43:34.315Z,43.92
2023-01-27T03:46:18.444Z,41.83
2023-01-27T03:48:50.256Z,34.10
2023-01-27T03:51:18.760Z,43.78
2023-01-27T03:53:46.102Z,41.33
2023-01-27T03:56:13.409Z,48.22
2023-01-27T03:58:40.860Z,46.97
2023-01-27T04:01:16.215Z,38.83
2023-01-27T04:04:02.059Z,47.42
2023-01-27T04:06:49.841Z,43.90
2023-01-27T04:09:28.361Z,42.55
2023-01-27T04:11:59.685Z,48.70
2023-01-27T04:14:33.740Z,44.33
2023-01-27T04:17:03.926Z,39.67
2023-01-27T04:19:31.550Z,42.28
2023-01-27T04:21:59.448Z,47.15
2023-01-27T04:24:26.973Z,48.35
2023-01-27T04:27:08.921Z,45.83
2023-01-27T04:29:43.395Z,44.53
2023-01-27T04:32:11.881Z,45.10
2023-01-27T04:34:39.601Z,46.30
2023-01-27T04:37:08.040Z,41.80
2023-01-27T04:39:35.540Z,40.53
2023-01-27T04:42:04.429Z,39.50
2023-01-27T04:44:31.835Z,36.25
2023-01-27T04:46:59.128Z,40.33
2023-01-27T04:49:27.201Z,43.30
2023-01-27T04:51:54.969Z,48.13
2023-01-27T04:54:22.208Z,49.85
2023-01-27T04:57:00.483Z,44.33
2023-01-27T04:59:28.408Z,45.97
2023-01-27T05:01:55.918Z,43.85
2023-01-27T05:04:23.295Z,36.08
2023-01-27T05:06:50.841Z,42.17
2023-01-27T05:09:18.303Z,44.30
2023-01-27T05:11:45.706Z,41.85
2023-01-27T05:14:14.176Z,36.03
2023-01-27T05:16:43.717Z,37.05
2023-01-27T05:19:11.196Z,44.47
2023-01-27T05:21:38.462Z,41.05
2023-01-27T05:24:07.970Z,36.47
2023-01-27T05:26:35.476Z,39.95
2023-01-27T05:29:02.729Z,34.20
2023-01-27T05:31:33.895Z,37.50
2023-01-27T05:34:05.366Z,41.53
2023-01-27T05:36:32.638Z,36.38
2023-01-27T05:39:01.224Z,43.03
2023-01-27T05:41:33.361Z,32.80
2023-01-27T05:44:00.715Z,33.28
2023-01-27T05:46:30.326Z,36.30
2023-01-27T05:49:00.407Z,37.40
2023-01-27T05:51:30.947Z,35.15
2023-01-27T05:53:58.276Z,38.70
2023-01-27T05:56:28.419Z,43.53
2023-01-27T05:58:58.419Z,40.78
2023-01-27T06:01:27.902Z,37.45
2023-01-27T06:03:55.228Z,35.33
2023-01-27T06:06:24.660Z,43.15
2023-01-27T06:08:52.318Z,46.60
2023-01-27T06:11:20.639Z,42.03
2023-01-27T06:13:48.713Z,50.70
2023-01-27T06:16:18.259Z,46.22
2023-01-27T06:18:46.233Z,45.22
2023-01-27T06:21:18.046Z,39.95
2023-01-27T06:23:45.259Z,43.67
2023-01-27T06:26:17.637Z,36.33
2023-01-27T06:28:45.125Z,38.38
2023-01-27T06:31:15.216Z,43.40
2023-01-27T06:33:42.863Z,43.13
2023-01-27T06:36:12.672Z,36.70
2023-01-27T06:38:40.352Z,38.28
2023-01-27T06:41:07.896Z,35.92
2023-01-27T06:43:35.786Z,32.03
2023-01-27T06:46:05.681Z,37.17
2023-01-27T06:48:33.446Z,34.92
2023-01-27T06:51:01.021Z,30.10
2023-01-27T06:53:28.244Z,22.90
2023-01-27T06:55:57.165Z,26.73
2023-01-27T06:58:24.823Z,24.13
2023-01-27T07:00:52.723Z,27.90
2023-01-27T07:03:20.269Z,37.00
2023-01-27T07:05:47.576Z,28.85
2023-01-27T07:08:14.946Z,27.48
2023-01-27T07:10:43.391Z,31.13
2023-01-27T07:13:12.842Z,31.17
2023-01-27T07:15:40.823Z,29.70
2023-01-27T07:18:09.552Z,41.90
2023-01-27T07:20:36.891Z,27.83
2023-01-27T07:23:05.718Z,36.10
2023-01-27T07:25:36.393Z,29.08
2023-01-27T07:28:04.210Z,32.72
2023-01-27T07:30:31.879Z,27.60
2023-01-27T07:33:10.287Z,30.52
2023-01-27T07:35:38.543Z,28.07
2023-01-27T07:38:06.873Z,19.65
2023-01-27T07:40:34.780Z,21.75
2023-01-27T07:43:03.256Z,30.33
2023-01-27T07:45:30.921Z,23.40
2023-01-27T07:48:08.076Z,25.83
2023-01-27T07:50:36.221Z,24.08
2023-01-27T07:53:05.044Z,21.48
2023-01-27T07:55:35.819Z,27.13
2023-01-27T07:58:03.100Z,31.20
2023-01-27T08:00:30.425Z,26.20
2023-01-27T08:02:58.718Z,26.88
2023-01-27T08:05:27.125Z,30.88
2023-01-27T08:07:57.119Z,28.25
2023-01-27T08:10:25.805Z,26.80
2023-01-27T08:12:53.231Z,26.13
2023-01-27T08:15:20.718Z,29.58
2023-01-27T08:17:58.469Z,27.92
2023-01-27T08:20:27.501Z,29.83
2023-01-27T08:22:55.067Z,27.48
2023-01-27T08:25:23.089Z,28.67
2023-01-27T08:27:52.089Z,26.90
2023-01-27T08:30:20.236Z,25.52
2023-01-27T08:32:47.954Z,30.30
2023-01-27T08:35:15.587Z,30.30
2023-01-27T08:37:42.931Z,27.70
2023-01-27T08:40:11.202Z,30.75
2023-01-27T08:42:38.650Z,33.03
2023-01-27T08:45:06.295Z,30.80
2023-01-27T08:47:33.549Z,30.88
2023-01-27T08:50:00.821Z,30.77
2023-01-27T08:52:30.749Z,35.53
2023-01-27T08:54:58.554Z,34.90
2023-01-27T08:57:26.038Z,30.42
2023-01-27T08:59:53.286Z,27.88
2023-01-27T09:02:22.561Z,29.02
2023-01-27T09:04:51.533Z,25.05
2023-01-27T09:07:19.256Z,25.45
2023-01-27T09:09:51.276Z,23.00
2023-01-27T09:12:23.221Z,20.38
2023-01-27T09:14:50.512Z,24.60
2023-01-27T09:17:19.660Z,30.77
2023-01-27T09:19:48.072Z,23.55
2023-01-27T09:22:15.348Z,22.17
2023-01-27T09:24:42.716Z,20.65
2023-01-27T09:27:10.434Z,23.58
2023-01-27T09:29:37.801Z,20.25
2023-01-27T09:32:05.667Z,20.17
2023-01-27T09:34:32.917Z,20.13
2023-01-27T09:37:09.097Z,20.30
2023-01-27T09:39:51.444Z,25.40
2023-01-27T09:42:40.267Z,19.60
2023-01-27T09:45:36.385Z,20.90
2023-01-27T09:48:07.500Z,22.20
2023-01-27T09:50:45.087Z,23.25
2023-01-27T09:53:29.106Z,25.58
2023-01-27T09:56:12.456Z,23.38
2023-01-27T09:58:54.768Z,26.65
2023-01-27T10:01:43.309Z,20.48
2023-01-27T10:04:39.626Z,24.33
2023-01-27T10:07:34.822Z,18.10
2023-01-27T10:10:31.991Z,16.88
2023-01-27T10:13:13.230Z,17.23
2023-01-27T10:16:03.373Z,21.38
2023-01-27T10:18:50.972Z,20.00
2023-01-27T10:21:46.292Z,19.38
2023-01-27T10:24:48.355Z,13.48
2023-01-27T10:27:23.575Z,17.30
2023-01-27T10:29:58.951Z,17.15
2023-01-27T10:32:45.082Z,21.95
2023-01-27T10:35:20.868Z,22.65
2023-01-27T10:37:53.119Z,18.17
2023-01-27T10:40:36.273Z,18.65
2023-01-27T10:43:08.693Z,16.88
2023-01-27T10:45:55.622Z,20.08
2023-01-27T10:48:28.212Z,12.77
2023-01-27T10:51:02.498Z,16.40
2023-01-27T10:53:44.307Z,15.60
2023-01-27T10:56:24.758Z,8.82
2023-01-27T10:59:22.803Z,16.67
2023-01-27T11:01:53.943Z,14.00
2023-01-27T11:05:03.942Z,16.90
2023-01-27T11:07:32.887Z,13.43
2023-01-27T11:10:09.075Z,17.08
2023-01-27T11:12:39.389Z,11.82
2023-01-27T11:15:24.404Z,12.43
2023-01-27T11:18:02.104Z,16.23
2023-01-27T11:20:35.541Z,12.20
2023-01-27T11:23:28.208Z,12.63
2023-01-27T11:26:28.152Z,10.98
2023-01-27T11:29:25.607Z,14.35
2023-01-27T11:32:17.476Z,10.38
2023-01-27T11:34:57.391Z,14.80
2023-01-27T11:37:31.915Z,11.48
2023-01-27T11:39:59.195Z,11.20
2023-01-27T11:42:35.019Z,18.52
2023-01-27T11:45:02.699Z,12.50
2023-01-27T11:47:40.946Z,12.18
2023-01-27T11:50:13.611Z,10.57
2023-01-27T11:52:41.213Z,12.68
2023-01-27T11:55:14.716Z,16.13
2023-01-27T11:57:54.205Z,13.70
2023-01-27T12:00:29.319Z,12.00
2023-01-27T12:03:06.652Z,13.38
2023-01-27T12:05:49.259Z,9.38
2023-01-27T12:08:46.452Z,13.43
2023-01-27T12:11:28.928Z,10.52
2023-01-27T12:14:00.327Z,13.25
2023-01-27T12:16:51.293Z,10.00
2023-01-27T12:19:27.810Z,14.23
2023-01-27T12:21:58.034Z,10.27
2023-01-27T12:24:34.788Z,8.70
2023-01-27T12:27:03.068Z,11.38
2023-01-27T12:29:57.037Z,9.77
2023-01-27T12:32:42.588Z,7.90
2023-01-27T12:35:31.297Z,8.65
2023-01-27T12:38:04.823Z,15.00
2023-01-27T12:40:33.235Z,8.93
2023-01-27T12:43:13.604Z,10.15
2023-01-27T12:45:41.654Z,13.48
2023-01-27T12:48:15.921Z,14.80
2023-01-27T12:50:54.943Z,10.40
2023-01-27T12:53:23.358Z,16.13
2023-01-27T12:56:00.448Z,12.60
2023-01-27T12:58:31.939Z,21.27
2023-01-27T13:01:01.659Z,13.68
2023-01-27T13:03:29.906Z,13.40
2023-01-27T13:05:59.257Z,16.35
2023-01-27T13:10:57.820Z,18.98
2023-01-27T13:13:27.385Z,17.63
2023-01-27T13:16:07.948Z,22.90
2023-01-27T13:18:38.979Z,17.08
2023-01-27T13:21:19.678Z,19.80
2023-01-27T13:23:49.102Z,19.77
2023-01-27T13:26:23.989Z,19.52
2023-01-27T13:28:54.318Z,16.20
2023-01-27T13:31:44.578Z,14.13
2023-01-27T13:34:27.837Z,16.45
2023-01-27T13:37:07.185Z,21.08
2023-01-27T13:42:40.259Z,23.77
2023-01-27T13:45:36.901Z,22.15
2023-01-27T13:48:18.895Z,23.75
2023-01-27T13:51:08.758Z,24.45
2023-01-27T13:53:36.534Z,18.65
2023-01-27T13:56:15.944Z,24.98
2023-01-27T14:01:48.061Z,22.00
2023-01-27T14:04:36.663Z,20.15
2023-01-27T14:07:13.126Z,23.05
2023-01-27T14:10:05.192Z,19.15
2023-01-27T14:12:41.802Z,20.02
2023-01-27T14:15:28.103Z,18.15
2023-01-27T14:18:08.374Z,18.63
2023-01-27T14:21:05.577Z,9.93
2023-01-27T14:23:51.247Z,10.32
2023-01-27T14:26:30.517Z,15.20
2023-01-27T14:29:31.242Z,9.95
2023-01-27T14:32:20.347Z,8.50
2023-01-27T14:35:00.193Z,16.05
2023-01-27T14:38:26.098Z,11.45
2023-01-27T14:41:24.860Z,14.77
2023-01-27T14:44:01.286Z,9.55
2023-01-27T14:46:59.279Z,13.13
2023-01-27T14:49:52.426Z,10.65
2023-01-27T14:52:44.345Z,12.88
2023-01-27T14:55:32.145Z,9.23
2023-01-27T14:58:22.622Z,10.07
2023-01-27T15:01:16.247Z,6.57
2023-01-27T15:03:43.498Z,6.93
2023-01-27T15:06:25.780Z,7.35
2023-01-27T15:09:02.075Z,9.38
2023-01-27T15:11:36.789Z,16.30
2023-01-27T15:14:06.981Z,7.85
2023-01-27T15:16:39.713Z,10.05
2023-01-27T15:19:45.581Z,11.98
2023-01-27T15:22:44.420Z,12.27
2023-01-27T15:25:33.519Z,20.00
2023-01-27T15:28:02.150Z,14.95
2023-01-27T15:30:33.351Z,10.30
2023-01-27T15:33:00.789Z,14.32
2023-01-27T15:35:36.755Z,14.20
2023-01-27T15:38:09.760Z,22.88
2023-01-27T15:40:59.070Z,10.65
2023-01-27T15:43:29.669Z,17.63
2023-01-27T15:45:58.356Z,15.85
2023-01-27T15:48:33.833Z,17.00
2023-01-27T15:51:06.817Z,12.25
2023-01-27T15:53:41.247Z,12.73
2023-01-27T15:56:09.800Z,21.85
2023-01-27T15:58:50.806Z,14.93
2023-01-27T16:01:28.030Z,18.77
2023-01-27T16:04:11.468Z,17.08
2023-01-27T16:06:47.274Z,18.23
2023-01-27T16:09:26.171Z,19.02
2023-01-27T16:12:27.057Z,17.25
2023-01-27T16:15:13.433Z,19.63
2023-01-27T16:18:07.996Z,17.63
2023-01-27T16:20:44.227Z,16.90
2023-01-27T16:23:19.279Z,20.63
2023-01-27T16:26:06.867Z,18.20
2023-01-27T16:28:35.289Z,28.00
2023-01-27T16:31:18.909Z,31.08
2023-01-27T16:33:55.412Z,37.45
2023-01-27T16:36:28.035Z,26.48
2023-01-27T16:38:57.916Z,27.58
2023-01-27T16:41:37.907Z,18.70
2023-01-27T16:44:18.153Z,15.57
2023-01-27T16:46:51.351Z,15.23
2023-01-27T16:49:28.759Z,14.35
2023-01-27T16:51:57.289Z,23.60
2023-01-27T16:54:32.019Z,16.10
2023-01-27T16:56:59.427Z,14.98
2023-01-27T16:59:28.597Z,18.10
2023-01-27T17:02:01.882Z,23.83
2023-01-27T17:04:32.091Z,18.25
2023-01-27T17:07:13.416Z,25.13
2023-01-27T17:09:42.397Z,17.85
2023-01-27T17:12:32.029Z,22.92
2023-01-27T17:15:00.458Z,37.85
2023-01-27T17:17:29.647Z,21.10
2023-01-27T17:20:03.899Z,41.33
2023-01-27T17:22:40.252Z,12.77
2023-01-27T17:25:32.328Z,11.65
2023-01-27T17:28:01.192Z,14.45
2023-01-27T17:30:41.914Z,11.48
2023-01-27T17:33:19.416Z,10.63
2023-01-27T17:35:56.021Z,11.70
2023-01-27T17:38:27.937Z,9.50
2023-01-27T17:40:55.921Z,12.45
2023-01-27T17:43:30.930Z,14.50
2023-01-27T17:46:16.667Z,13.98
2023-01-27T17:48:50.848Z,14.48
2023-01-27T17:51:23.617Z,8.95
2023-01-27T17:53:52.210Z,12.90
2023-01-27T17:56:27.289Z,7.40
2023-01-27T17:59:03.368Z,10.13
2023-01-27T18:01:31.277Z,8.57
2023-01-27T18:03:58.904Z,9.70
2023-01-27T18:06:29.915Z,12.90
2023-01-27T18:08:59.738Z,10.55
2023-01-27T18:11:32.108Z,5.97
2023-01-27T18:14:08.847Z,10.20
2023-01-27T18:16:36.437Z,6.85
2023-01-27T18:19:23.728Z,7.28
2023-01-27T18:22:12.477Z,8.88
2023-01-27T18:24:40.755Z,9.70
2023-01-27T18:27:22.596Z,29.70
2023-01-27T18:29:54.194Z,7.45
2023-01-27T18:32:24.160Z,7.80
2023-01-27T18:34:59.304Z,11.25
2023-01-27T18:37:36.159Z,8.45
2023-01-27T18:40:26.552Z,10.40
2023-01-27T18:42:54.608Z,15.90
2023-01-27T18:45:22.052Z,8.15
2023-01-27T18:47:52.091Z,9.13
2023-01-27T18:50:22.301Z,6.78
2023-01-27T18:52:50.793Z,9.73
2023-01-27T18:55:26.805Z,7.10
2023-01-27T18:57:58.806Z,6.20
2023-01-27T19:00:35.984Z,6.45
2023-01-27T19:03:03.923Z,7.90
2023-01-27T19:05:35.479Z,9.25
2023-01-27T19:08:03.766Z,10.15
2023-01-27T19:10:33.857Z,9.20
2023-01-27T19:13:02.700Z,12.45
2023-01-27T19:15:39.738Z,9.77
2023-01-27T19:18:29.563Z,12.35
2023-01-27T19:20:56.875Z,13.88
2023-01-27T19:23:24.181Z,14.13
2023-01-27T19:25:54.087Z,7.93
2023-01-27T19:28:25.042Z,7.38
2023-01-27T19:30:52.311Z,9.45
2023-01-27T19:33:22.881Z,7.90
2023-01-27T19:35:57.030Z,8.35
2023-01-27T19:38:28.454Z,7.68
2023-01-27T19:40:56.022Z,8.65
2023-01-27T19:43:23.536Z,8.57
2023-01-27T19:45:50.971Z,9.23
2023-01-27T19:48:20.476Z,8.57
2023-01-27T19:50:48.230Z,8.13
2023-01-27T19:53:18.670Z,7.45
2023-01-27T19:55:47.348Z,8.57
2023-01-27T19:58:22.057Z,8.70
2023-01-27T20:00:49.325Z,8.27
2023-01-27T20:03:16.743Z,8.35
2023-01-27T20:05:44.104Z,10.60
2023-01-27T20:08:19.570Z,7.80
2023-01-27T20:10:47.045Z,9.57
2023-01-27T20:13:17.125Z,5.60
2023-01-27T20:15:44.655Z,6.05
2023-01-27T20:18:15.163Z,5.22
2023-01-27T20:20:44.301Z,8.70
2023-01-27T20:23:15.245Z,5.82
2023-01-27T20:25:42.629Z,9.38
2023-01-27T20:28:10.757Z,7.18
2023-01-27T20:30:38.837Z,4.80
2023-01-27T20:33:06.191Z,6.40
2023-01-27T20:35:33.706Z,5.90
2023-01-27T20:38:03.338Z,11.80
2023-01-27T20:40:31.147Z,6.18
2023-01-27T20:43:00.785Z,7.18
2023-01-27T20:45:28.224Z,9.10
2023-01-27T20:47:56.173Z,5.40
2023-01-27T20:50:26.038Z,6.38
2023-01-27T20:52:54.028Z,5.60
2023-01-27T20:55:21.376Z,8.32
2023-01-27T20:57:49.002Z,6.18
2023-01-27T21:00:20.872Z,6.63
2023-01-27T21:02:49.663Z,12.80
2023-01-27T21:05:17.223Z,7.82
2023-01-27T21:07:44.798Z,8.30
2023-01-27T21:10:12.263Z,6.55
2023-01-27T21:12:39.855Z,4.90
2023-01-27T21:15:09.812Z,8.82
2023-01-27T21:17:37.440Z,7.65
2023-01-27T21:20:05.166Z,6.93
2023-01-27T21:22:32.921Z,8.68
2023-01-27T21:25:00.185Z,8.07
2023-01-27T21:27:27.480Z,5.95
2023-01-27T21:29:54.792Z,6.28
2023-01-27T21:32:22.022Z,7.82
2023-01-27T21:34:49.275Z,6.40
2023-01-27T21:37:16.640Z,5.53
2023-01-27T21:39:43.917Z,6.65
2023-01-27T21:42:17.279Z,11.20
2023-01-27T21:45:03.107Z,9.45
2023-01-27T21:47:30.386Z,8.98
2023-01-27T21:50:00.590Z,10.82
2023-01-27T21:52:43.277Z,6.72
2023-01-27T21:55:23.400Z,8.35
2023-01-27T21:57:51.693Z,11.30
2023-01-27T22:00:21.520Z,11.82
2023-01-27T22:03:00.046Z,6.93
2023-01-27T22:05:28.227Z,7.35
2023-01-27T22:07:55.526Z,10.88
2023-01-27T22:10:25.557Z,6.03
2023-01-27T22:12:58.249Z,8.77
2023-01-27T22:15:28.659Z,4.72
2023-01-27T22:17:59.370Z,7.53
2023-01-27T22:20:27.544Z,7.30
2023-01-27T22:22:55.269Z,12.07
2023-01-27T22:25:22.582Z,4.35
2023-01-27T22:27:55.721Z,7.55
2023-01-27T22:30:24.253Z,10.10
2023-01-27T22:32:51.595Z,6.30
2023-01-27T22:35:19.506Z,9.65
2023-01-27T22:37:49.187Z,13.32
2023-01-27T22:40:16.757Z,5.65
2023-01-27T22:42:43.984Z,9.10
2023-01-27T22:45:11.731Z,8.27
2023-01-27T22:47:39.010Z,6.75
2023-01-27T22:50:06.600Z,9.70
2023-01-27T22:52:36.674Z,12.38
2023-01-27T22:55:08.972Z,9.60
2023-01-27T22:57:36.403Z,6.45
2023-01-27T23:00:05.777Z,5.82
2023-01-27T23:05:00.345Z,6.80
2023-01-27T23:07:27.823Z,8.73
2023-01-27T23:09:55.067Z,5.20
2023-01-27T23:12:22.383Z,7.60
2023-01-27T23:14:49.571Z,7.28
2023-01-27T23:17:16.824Z,13.38
2023-01-27T23:19:44.069Z,5.00
2023-01-27T23:22:11.841Z,11.02
2023-01-27T23:24:39.323Z,11.43
2023-01-27T23:27:06.543Z,8.52
2023-01-27T23:29:33.809Z,8.40
2023-01-27T23:32:01.246Z,7.35
2023-01-27T23:34:28.641Z,10.93
2023-01-27T23:36:55.864Z,5.80
2023-01-27T23:39:23.232Z,7.70
2023-01-27T23:41:50.432Z,12.63
2023-01-27T23:44:17.753Z,12.10
2023-01-27T23:46:44.959Z,7.28
2023-01-27T23:49:12.742Z,7.97
2023-01-27T23:51:40.016Z,10.93
2023-01-27T23:54:07.293Z,10.50
2023-01-27T23:56:34.597Z,9.85
2023-01-27T23:59:02.056Z,10.38
